sensor_id;sensor_type;location;lat;lon;timestamp;temperature;humidity
5711;DHT22;61291;52.524;13.422;2023-05-07T00:01:31;9.90;99.90
5711;DHT22;61291;52.524;13.422;2023-05-07T00:03:57;9.90;99.90
5711;DHT22;61291;52.524;13.422;2023-05-07T00:06:22;10.00;99.90
5711;DHT22;61291;52.524;13.422;2023-05-07T00:08:48;10.00;99.90
5711;DHT22;61291;52.524;13.422;2023-05-07T00:11:13;9.90;99.90
5711;DHT22;61291;52.524;13.422;2023-05-07T00:13:40;10.00;99.90
5711;DHT22;61291;52.524;13.422;2023-05-07T00:16:05;10.00;99.90
5711;DHT22;61291;52.524;13.422;2023-05-07T00:18:31;9.90;99.90
5711;DHT22;61291;52.524;13.422;2023-05-07T00:20:56;9.90;99.90
5711;DHT22;61291;52.524;13.422;2023-05-07T00:23:22;9.90;99.90
5711;DHT22;61291;52.524;13.422;2023-05-07T00:25:48;9.90;99.90
5711;DHT22;61291;52.524;13.422;2023-05-07T00:28:13;9.90;99.90
5711;DHT22;61291;52.524;13.422;2023-05-07T00:30:39;9.90;99.90
5711;DHT22;61291;52.524;13.422;2023-05-07T00:33:04;9.90;99.90
5711;DHT22;61291;52.524;13.422;2023-05-07T00:35:30;10.00;99.90
5711;DHT22;61291;52.524;13.422;2023-05-07T00:37:56;10.00;99.90
5711;DHT22;61291;52.524;13.422;2023-05-07T00:40:21;9.80;99.90
5711;DHT22;61291;52.524;13.422;2023-05-07T00:42:47;9.60;99.90
5711;DHT22;61291;52.524;13.422;2023-05-07T00:45:14;9.40;99.90
5711;DHT22;61291;52.524;13.422;2023-05-07T00:47:40;9.30;99.90
5711;DHT22;61291;52.524;13.422;2023-05-07T00:50:06;9.30;99.90
5711;DHT22;61291;52.524;13.422;2023-05-07T00:52:33;9.30;99.90
5711;DHT22;61291;52.524;13.422;2023-05-07T00:55:02;9.30;99.90
5711;DHT22;61291;52.524;13.422;2023-05-07T00:57:29;9.40;99.90
5711;DHT22;61291;52.524;13.422;2023-05-07T00:59:57;9.50;99.90
5711;DHT22;61291;52.524;13.422;2023-05-07T01:02:23;9.50;99.90
5711;DHT22;61291;52.524;13.422;2023-05-07T01:04:48;9.60;99.90
5711;DHT22;61291;52.524;13.422;2023-05-07T01:07:14;9.70;99.90
5711;DHT22;61291;52.524;13.422;2023-05-07T01:09:39;9.80;99.90
5711;DHT22;61291;52.524;13.422;2023-05-07T01:12:06;9.80;99.90
5711;DHT22;61291;52.524;13.422;2023-05-07T01:14:32;9.80;99.90
5711;DHT22;61291;52.524;13.422;2023-05-07T01:16:58;9.80;99.90
5711;DHT22;61291;52.524;13.422;2023-05-07T01:19:24;9.80;99.90
5711;DHT22;61291;52.524;13.422;2023-05-07T01:21:51;9.80;99.90
5711;DHT22;61291;52.524;13.422;2023-05-07T01:24:16;9.80;99.90
5711;DHT22;61291;52.524;13.422;2023-05-07T01:26:43;9.80;99.90
5711;DHT22;61291;52.524;13.422;2023-05-07T01:29:10;9.90;99.90
5711;DHT22;61291;52.524;13.422;2023-05-07T01:31:36;9.90;99.90
5711;DHT22;61291;52.524;13.422;2023-05-07T01:34:04;9.80;99.90
5711;DHT22;61291;52.524;13.422;2023-05-07T01:36:32;9.80;99.90
5711;DHT22;61291;52.524;13.422;2023-05-07T01:38:59;9.80;99.90
5711;DHT22;61291;52.524;13.422;2023-05-07T01:41:25;9.80;99.90
5711;DHT22;61291;52.524;13.422;2023-05-07T01:43:51;9.80;99.90
5711;DHT22;61291;52.524;13.422;2023-05-07T01:46:17;9.90;99.90
5711;DHT22;61291;52.524;13.422;2023-05-07T01:48:44;9.90;99.90
5711;DHT22;61291;52.524;13.422;2023-05-07T01:51:11;9.90;99.90
5711;DHT22;61291;52.524;13.422;2023-05-07T01:53:37;9.90;99.90
5711;DHT22;61291;52.524;13.422;2023-05-07T01:56:03;9.90;99.90
5711;DHT22;61291;52.524;13.422;2023-05-07T01:58:28;9.90;99.90
5711;DHT22;61291;52.524;13.422;2023-05-07T02:00:54;9.90;99.90
5711;DHT22;61291;52.524;13.422;2023-05-07T02:03:19;9.90;99.90
5711;DHT22;61291;52.524;13.422;2023-05-07T02:05:45;9.80;99.90
5711;DHT22;61291;52.524;13.422;2023-05-07T02:08:10;9.70;99.90
5711;DHT22;61291;52.524;13.422;2023-05-07T02:10:36;9.80;99.90
5711;DHT22;61291;52.524;13.422;2023-05-07T02:13:01;9.90;99.90
5711;DHT22;61291;52.524;13.422;2023-05-07T02:15:27;9.90;99.90
5711;DHT22;61291;52.524;13.422;2023-05-07T02:18:03;9.90;99.90
5711;DHT22;61291;52.524;13.422;2023-05-07T02:20:29;9.90;99.90
5711;DHT22;61291;52.524;13.422;2023-05-07T02:22:55;9.90;99.90
5711;DHT22;61291;52.524;13.422;2023-05-07T02:25:20;9.90;99.90
5711;DHT22;61291;52.524;13.422;2023-05-07T02:27:46;9.90;99.90
5711;DHT22;61291;52.524;13.422;2023-05-07T02:30:11;9.90;99.90
5711;DHT22;61291;52.524;13.422;2023-05-07T02:32:37;9.90;99.90
5711;DHT22;61291;52.524;13.422;2023-05-07T02:35:03;9.90;99.90
5711;DHT22;61291;52.524;13.422;2023-05-07T02:37:28;9.90;99.90
5711;DHT22;61291;52.524;13.422;2023-05-07T02:39:53;9.90;99.90
5711;DHT22;61291;52.524;13.422;2023-05-07T02:42:19;10.00;99.90
5711;DHT22;61291;52.524;13.422;2023-05-07T02:44:44;10.00;99.90
5711;DHT22;61291;52.524;13.422;2023-05-07T02:47:10;10.00;99.90
5711;DHT22;61291;52.524;13.422;2023-05-07T02:49:38;9.90;99.90
5711;DHT22;61291;52.524;13.422;2023-05-07T02:52:03;9.90;99.90
5711;DHT22;61291;52.524;13.422;2023-05-07T02:54:29;9.80;99.90
5711;DHT22;61291;52.524;13.422;2023-05-07T02:56:54;9.80;99.90
5711;DHT22;61291;52.524;13.422;2023-05-07T02:59:20;9.80;99.90
5711;DHT22;61291;52.524;13.422;2023-05-07T03:01:45;9.80;99.90
5711;DHT22;61291;52.524;13.422;2023-05-07T03:04:11;9.80;99.90
5711;DHT22;61291;52.524;13.422;2023-05-07T03:06:36;9.80;99.90
5711;DHT22;61291;52.524;13.422;2023-05-07T03:09:02;9.80;99.90
5711;DHT22;61291;52.524;13.422;2023-05-07T03:11:28;9.80;99.90
5711;DHT22;61291;52.524;13.422;2023-05-07T03:13:53;9.80;99.90
5711;DHT22;61291;52.524;13.422;2023-05-07T03:16:19;9.80;99.90
5711;DHT22;61291;52.524;13.422;2023-05-07T03:18:45;9.80;99.90
5711;DHT22;61291;52.524;13.422;2023-05-07T03:21:10;9.80;99.90
5711;DHT22;61291;52.524;13.422;2023-05-07T03:23:35;9.80;99.90
5711;DHT22;61291;52.524;13.422;2023-05-07T03:26:01;9.80;99.90
5711;DHT22;61291;52.524;13.422;2023-05-07T03:28:26;9.80;99.90
5711;DHT22;61291;52.524;13.422;2023-05-07T03:30:52;9.80;99.90
5711;DHT22;61291;52.524;13.422;2023-05-07T03:33:17;9.70;99.90
5711;DHT22;61291;52.524;13.422;2023-05-07T03:35:43;9.80;99.90
5711;DHT22;61291;52.524;13.422;2023-05-07T03:38:08;9.80;99.90
5711;DHT22;61291;52.524;13.422;2023-05-07T03:40:34;9.80;99.90
5711;DHT22;61291;52.524;13.422;2023-05-07T03:43:00;9.70;99.90
5711;DHT22;61291;52.524;13.422;2023-05-07T03:45:26;9.70;99.90
5711;DHT22;61291;52.524;13.422;2023-05-07T03:47:51;9.60;99.90
5711;DHT22;61291;52.524;13.422;2023-05-07T03:50:17;9.60;99.90
5711;DHT22;61291;52.524;13.422;2023-05-07T03:52:42;9.60;99.90
5711;DHT22;61291;52.524;13.422;2023-05-07T03:55:08;9.60;99.90
5711;DHT22;61291;52.524;13.422;2023-05-07T03:57:33;9.60;99.90
5711;DHT22;61291;52.524;13.422;2023-05-07T03:59:59;9.70;99.90
5711;DHT22;61291;52.524;13.422;2023-05-07T04:02:24;9.70;99.90
5711;DHT22;61291;52.524;13.422;2023-05-07T04:04:50;9.70;99.90
5711;DHT22;61291;52.524;13.422;2023-05-07T04:07:16;9.70;99.90
5711;DHT22;61291;52.524;13.422;2023-05-07T04:09:41;9.70;99.90
5711;DHT22;61291;52.524;13.422;2023-05-07T04:12:06;9.70;99.90
5711;DHT22;61291;52.524;13.422;2023-05-07T04:14:32;9.70;99.90
5711;DHT22;61291;52.524;13.422;2023-05-07T04:16:58;9.70;99.90
5711;DHT22;61291;52.524;13.422;2023-05-07T04:19:24;9.70;99.90
5711;DHT22;61291;52.524;13.422;2023-05-07T04:21:50;9.80;99.90
5711;DHT22;61291;52.524;13.422;2023-05-07T04:24:15;9.80;99.90
5711;DHT22;61291;52.524;13.422;2023-05-07T04:26:41;9.80;99.90
5711;DHT22;61291;52.524;13.422;2023-05-07T04:29:06;9.90;99.90
5711;DHT22;61291;52.524;13.422;2023-05-07T04:31:32;10.00;99.90
5711;DHT22;61291;52.524;13.422;2023-05-07T04:33:57;10.10;99.90
5711;DHT22;61291;52.524;13.422;2023-05-07T04:36:23;10.20;99.90
5711;DHT22;61291;52.524;13.422;2023-05-07T04:38:51;10.30;99.90
5711;DHT22;61291;52.524;13.422;2023-05-07T04:41:16;10.50;99.90
5711;DHT22;61291;52.524;13.422;2023-05-07T04:43:42;10.50;99.90
5711;DHT22;61291;52.524;13.422;2023-05-07T04:46:08;10.50;99.90
5711;DHT22;61291;52.524;13.422;2023-05-07T04:48:33;10.60;99.90
5711;DHT22;61291;52.524;13.422;2023-05-07T04:50:59;10.70;99.90
5711;DHT22;61291;52.524;13.422;2023-05-07T04:53:24;10.80;99.90
5711;DHT22;61291;52.524;13.422;2023-05-07T04:55:55;10.80;99.90
5711;DHT22;61291;52.524;13.422;2023-05-07T04:58:21;10.70;99.90
5711;DHT22;61291;52.524;13.422;2023-05-07T05:00:46;11.00;99.90
5711;DHT22;61291;52.524;13.422;2023-05-07T05:03:12;10.80;99.90
5711;DHT22;61291;52.524;13.422;2023-05-07T05:05:37;10.80;99.90
5711;DHT22;61291;52.524;13.422;2023-05-07T05:08:03;11.10;99.90
5711;DHT22;61291;52.524;13.422;2023-05-07T05:10:28;11.40;99.90
5711;DHT22;61291;52.524;13.422;2023-05-07T05:12:54;11.70;99.90
5711;DHT22;61291;52.524;13.422;2023-05-07T05:15:19;12.00;99.90
5711;DHT22;61291;52.524;13.422;2023-05-07T05:17:45;12.30;99.90
5711;DHT22;61291;52.524;13.422;2023-05-07T05:20:11;12.50;99.90
5711;DHT22;61291;52.524;13.422;2023-05-07T05:22:37;12.40;99.90
5711;DHT22;61291;52.524;13.422;2023-05-07T05:25:02;12.30;99.90
5711;DHT22;61291;52.524;13.422;2023-05-07T05:27:28;12.00;99.90
5711;DHT22;61291;52.524;13.422;2023-05-07T05:29:54;12.10;99.90
5711;DHT22;61291;52.524;13.422;2023-05-07T05:32:19;12.30;99.90
5711;DHT22;61291;52.524;13.422;2023-05-07T05:34:45;12.30;99.90
5711;DHT22;61291;52.524;13.422;2023-05-07T05:37:11;12.20;99.90
5711;DHT22;61291;52.524;13.422;2023-05-07T05:39:36;12.60;99.90
5711;DHT22;61291;52.524;13.422;2023-05-07T05:42:02;12.80;99.90
5711;DHT22;61291;52.524;13.422;2023-05-07T05:44:27;12.90;99.90
5711;DHT22;61291;52.524;13.422;2023-05-07T05:46:53;13.10;99.90
5711;DHT22;61291;52.524;13.422;2023-05-07T05:49:20;13.50;99.90
5711;DHT22;61291;52.524;13.422;2023-05-07T05:51:46;13.70;99.90
5711;DHT22;61291;52.524;13.422;2023-05-07T05:54:12;14.20;99.90
5711;DHT22;61291;52.524;13.422;2023-05-07T05:56:37;14.20;99.90
5711;DHT22;61291;52.524;13.422;2023-05-07T05:59:03;14.30;99.90
5711;DHT22;61291;52.524;13.422;2023-05-07T06:01:29;14.40;99.90
5711;DHT22;61291;52.524;13.422;2023-05-07T06:03:54;14.40;99.90
5711;DHT22;61291;52.524;13.422;2023-05-07T06:06:20;14.70;99.90
5711;DHT22;61291;52.524;13.422;2023-05-07T06:08:45;15.60;99.90
5711;DHT22;61291;52.524;13.422;2023-05-07T06:11:11;16.10;99.90
5711;DHT22;61291;52.524;13.422;2023-05-07T06:13:36;16.00;99.90
5711;DHT22;61291;52.524;13.422;2023-05-07T06:16:02;16.20;99.90
5711;DHT22;61291;52.524;13.422;2023-05-07T06:18:27;16.00;99.90
5711;DHT22;61291;52.524;13.422;2023-05-07T06:20:53;16.00;99.90
5711;DHT22;61291;52.524;13.422;2023-05-07T06:23:18;16.10;99.90
5711;DHT22;61291;52.524;13.422;2023-05-07T06:25:50;15.90;99.90
5711;DHT22;61291;52.524;13.422;2023-05-07T06:28:16;15.60;99.90
5711;DHT22;61291;52.524;13.422;2023-05-07T06:30:42;15.60;99.90
5711;DHT22;61291;52.524;13.422;2023-05-07T06:33:07;15.50;99.90
5711;DHT22;61291;52.524;13.422;2023-05-07T06:35:33;15.50;99.90
5711;DHT22;61291;52.524;13.422;2023-05-07T06:37:59;15.50;99.90
5711;DHT22;61291;52.524;13.422;2023-05-07T06:40:25;15.70;99.90
5711;DHT22;61291;52.524;13.422;2023-05-07T06:42:51;15.30;99.90
5711;DHT22;61291;52.524;13.422;2023-05-07T06:45:16;15.40;99.90
5711;DHT22;61291;52.524;13.422;2023-05-07T06:47:42;16.80;99.90
5711;DHT22;61291;52.524;13.422;2023-05-07T06:50:07;16.60;99.90
5711;DHT22;61291;52.524;13.422;2023-05-07T06:52:33;16.80;99.90
5711;DHT22;61291;52.524;13.422;2023-05-07T06:54:59;17.20;99.90
5711;DHT22;61291;52.524;13.422;2023-05-07T06:57:25;17.60;99.90
5711;DHT22;61291;52.524;13.422;2023-05-07T06:59:50;18.40;99.90
5711;DHT22;61291;52.524;13.422;2023-05-07T07:02:16;18.00;99.90
5711;DHT22;61291;52.524;13.422;2023-05-07T07:04:41;17.60;99.90
5711;DHT22;61291;52.524;13.422;2023-05-07T07:07:07;17.50;99.90
5711;DHT22;61291;52.524;13.422;2023-05-07T07:09:32;17.80;99.90
5711;DHT22;61291;52.524;13.422;2023-05-07T07:11:58;20.00;99.90
5711;DHT22;61291;52.524;13.422;2023-05-07T07:14:24;20.90;99.40
5711;DHT22;61291;52.524;13.422;2023-05-07T07:16:49;21.40;97.40
5711;DHT22;61291;52.524;13.422;2023-05-07T07:19:15;21.00;95.80
5711;DHT22;61291;52.524;13.422;2023-05-07T07:21:41;21.40;95.50
5711;DHT22;61291;52.524;13.422;2023-05-07T07:24:07;22.60;94.70
5711;DHT22;61291;52.524;13.422;2023-05-07T07:26:32;21.60;93.10
5711;DHT22;61291;52.524;13.422;2023-05-07T07:28:58;21.50;93.00
5711;DHT22;61291;52.524;13.422;2023-05-07T07:31:23;20.00;92.70
5711;DHT22;61291;52.524;13.422;2023-05-07T07:33:49;20.80;93.30
5711;DHT22;61291;52.524;13.422;2023-05-07T07:36:15;20.90;92.80
5711;DHT22;61291;52.524;13.422;2023-05-07T07:38:41;22.50;93.20
5711;DHT22;61291;52.524;13.422;2023-05-07T07:41:10;23.40;92.40
5711;DHT22;61291;52.524;13.422;2023-05-07T07:43:35;23.00;91.10
5711;DHT22;61291;52.524;13.422;2023-05-07T07:46:01;22.90;90.50
5711;DHT22;61291;52.524;13.422;2023-05-07T07:48:26;21.30;89.40
5711;DHT22;61291;52.524;13.422;2023-05-07T07:50:52;20.40;90.30
5711;DHT22;61291;52.524;13.422;2023-05-07T07:53:18;20.00;90.40
5711;DHT22;61291;52.524;13.422;2023-05-07T07:55:44;19.20;90.60
5711;DHT22;61291;52.524;13.422;2023-05-07T07:58:10;18.50;90.60
5711;DHT22;61291;52.524;13.422;2023-05-07T08:00:35;17.30;91.00
5711;DHT22;61291;52.524;13.422;2023-05-07T08:03:01;16.60;91.80
5711;DHT22;61291;52.524;13.422;2023-05-07T08:05:28;16.30;92.30
5711;DHT22;61291;52.524;13.422;2023-05-07T08:07:54;16.10;92.30
5711;DHT22;61291;52.524;13.422;2023-05-07T08:10:19;16.10;92.70
5711;DHT22;61291;52.524;13.422;2023-05-07T08:12:51;16.10;92.60
5711;DHT22;61291;52.524;13.422;2023-05-07T08:15:17;15.80;92.80
5711;DHT22;61291;52.524;13.422;2023-05-07T08:17:42;15.00;93.20
5711;DHT22;61291;52.524;13.422;2023-05-07T08:20:08;15.20;93.40
5711;DHT22;61291;52.524;13.422;2023-05-07T08:22:35;15.50;93.40
5711;DHT22;61291;52.524;13.422;2023-05-07T08:25:00;16.10;93.60
5711;DHT22;61291;52.524;13.422;2023-05-07T08:27:26;16.70;93.50
5711;DHT22;61291;52.524;13.422;2023-05-07T08:29:52;17.00;93.20
5711;DHT22;61291;52.524;13.422;2023-05-07T08:32:17;16.10;92.30
5711;DHT22;61291;52.524;13.422;2023-05-07T08:34:43;16.00;93.20
5711;DHT22;61291;52.524;13.422;2023-05-07T08:37:08;16.30;93.10
5711;DHT22;61291;52.524;13.422;2023-05-07T08:39:34;16.80;92.90
5711;DHT22;61291;52.524;13.422;2023-05-07T08:42:00;16.80;92.80
5711;DHT22;61291;52.524;13.422;2023-05-07T08:44:28;17.10;92.90
5711;DHT22;61291;52.524;13.422;2023-05-07T08:46:58;17.40;92.90
5711;DHT22;61291;52.524;13.422;2023-05-07T08:49:25;18.10;93.20
5711;DHT22;61291;52.524;13.422;2023-05-07T08:51:51;18.50;92.90
5711;DHT22;61291;52.524;13.422;2023-05-07T08:54:17;18.10;92.00
5711;DHT22;61291;52.524;13.422;2023-05-07T08:56:43;17.70;92.00
5711;DHT22;61291;52.524;13.422;2023-05-07T08:59:09;18.00;91.90
5711;DHT22;61291;52.524;13.422;2023-05-07T09:01:34;17.80;91.60
5711;DHT22;61291;52.524;13.422;2023-05-07T09:04:01;17.80;91.50
5711;DHT22;61291;52.524;13.422;2023-05-07T09:06:26;17.50;91.50
5711;DHT22;61291;52.524;13.422;2023-05-07T09:08:54;17.30;91.50
5711;DHT22;61291;52.524;13.422;2023-05-07T09:11:21;17.10;91.50
5711;DHT22;61291;52.524;13.422;2023-05-07T09:13:47;17.30;91.40
5711;DHT22;61291;52.524;13.422;2023-05-07T09:16:13;17.70;91.50
5711;DHT22;61291;52.524;13.422;2023-05-07T09:18:42;18.40;91.60
5711;DHT22;61291;52.524;13.422;2023-05-07T09:21:15;18.00;91.50
5711;DHT22;61291;52.524;13.422;2023-05-07T09:23:41;18.20;91.10
5711;DHT22;61291;52.524;13.422;2023-05-07T09:26:07;18.50;91.30
5711;DHT22;61291;52.524;13.422;2023-05-07T09:28:38;19.10;91.20
5711;DHT22;61291;52.524;13.422;2023-05-07T09:31:05;19.30;90.80
5711;DHT22;61291;52.524;13.422;2023-05-07T09:33:31;19.80;90.60
5711;DHT22;61291;52.524;13.422;2023-05-07T09:35:56;19.60;90.10
5711;DHT22;61291;52.524;13.422;2023-05-07T09:38:22;19.20;90.10
5711;DHT22;61291;52.524;13.422;2023-05-07T09:41:07;18.80;90.20
5711;DHT22;61291;52.524;13.422;2023-05-07T09:43:38;18.60;90.30
5711;DHT22;61291;52.524;13.422;2023-05-07T09:46:13;17.90;90.60
5711;DHT22;61291;52.524;13.422;2023-05-07T09:48:42;18.20;90.90
5711;DHT22;61291;52.524;13.422;2023-05-07T09:54:17;19.50;90.30
5711;DHT22;61291;52.524;13.422;2023-05-07T09:56:44;20.20;90.30
5711;DHT22;61291;52.524;13.422;2023-05-07T09:59:12;20.20;89.40
5711;DHT22;61291;52.524;13.422;2023-05-07T10:01:38;20.00;88.50
5711;DHT22;61291;52.524;13.422;2023-05-07T10:04:05;20.40;88.80
5711;DHT22;61291;52.524;13.422;2023-05-07T10:06:34;20.70;88.00
5711;DHT22;61291;52.524;13.422;2023-05-07T10:09:00;19.80;86.50
5711;DHT22;61291;52.524;13.422;2023-05-07T10:11:26;18.80;87.30
5711;DHT22;61291;52.524;13.422;2023-05-07T10:13:52;18.40;87.90
5711;DHT22;61291;52.524;13.422;2023-05-07T10:16:18;18.70;88.40
5711;DHT22;61291;52.524;13.422;2023-05-07T10:18:45;19.10;88.00
5711;DHT22;61291;52.524;13.422;2023-05-07T10:21:17;19.10;87.50
5711;DHT22;61291;52.524;13.422;2023-05-07T10:26:31;18.80;86.60
5711;DHT22;61291;52.524;13.422;2023-05-07T10:29:07;19.40;87.10
5711;DHT22;61291;52.524;13.422;2023-05-07T10:32:07;19.70;86.40
5711;DHT22;61291;52.524;13.422;2023-05-07T10:34:40;19.40;85.10
5711;DHT22;61291;52.524;13.422;2023-05-07T10:37:07;19.60;85.90
5711;DHT22;61291;52.524;13.422;2023-05-07T10:39:34;19.80;85.70
5711;DHT22;61291;52.524;13.422;2023-05-07T10:42:10;19.50;86.00
5711;DHT22;61291;52.524;13.422;2023-05-07T10:44:36;19.40;85.30
5711;DHT22;61291;52.524;13.422;2023-05-07T10:47:10;19.90;85.60
5711;DHT22;61291;52.524;13.422;2023-05-07T10:52:20;20.80;84.70
5711;DHT22;61291;52.524;13.422;2023-05-07T10:54:46;21.20;83.30
5711;DHT22;61291;52.524;13.422;2023-05-07T10:57:35;21.60;84.40
5711;DHT22;61291;52.524;13.422;2023-05-07T11:00:02;21.40;81.90
5711;DHT22;61291;52.524;13.422;2023-05-07T11:05:31;20.40;82.90
5711;DHT22;61291;52.524;13.422;2023-05-07T11:07:58;20.90;83.00
5711;DHT22;61291;52.524;13.422;2023-05-07T11:13:12;21.90;81.70
5711;DHT22;61291;52.524;13.422;2023-05-07T11:15:40;22.40;81.80
5711;DHT22;61291;52.524;13.422;2023-05-07T11:18:07;22.80;81.20
5711;DHT22;61291;52.524;13.422;2023-05-07T11:26:07;22.30;78.90
5711;DHT22;61291;52.524;13.422;2023-05-07T11:28:43;20.60;79.80
5711;DHT22;61291;52.524;13.422;2023-05-07T11:31:09;19.90;80.30
5711;DHT22;61291;52.524;13.422;2023-05-07T11:33:36;19.60;81.00
5711;DHT22;61291;52.524;13.422;2023-05-07T11:36:03;19.00;81.10
5711;DHT22;61291;52.524;13.422;2023-05-07T11:38:30;18.80;81.10
5711;DHT22;61291;52.524;13.422;2023-05-07T11:40:59;19.00;81.50
5711;DHT22;61291;52.524;13.422;2023-05-07T11:43:26;18.90;81.90
5711;DHT22;61291;52.524;13.422;2023-05-07T11:46:04;18.80;82.10
5711;DHT22;61291;52.524;13.422;2023-05-07T11:48:32;18.80;81.60
5711;DHT22;61291;52.524;13.422;2023-05-07T11:53:27;18.30;82.20
5711;DHT22;61291;52.524;13.422;2023-05-07T11:55:55;18.20;81.90
5711;DHT22;61291;52.524;13.422;2023-05-07T11:58:22;18.30;82.40
5711;DHT22;61291;52.524;13.422;2023-05-07T12:00:52;18.40;82.60
5711;DHT22;61291;52.524;13.422;2023-05-07T12:03:18;18.60;82.80
5711;DHT22;61291;52.524;13.422;2023-05-07T12:05:45;19.30;82.40
5711;DHT22;61291;52.524;13.422;2023-05-07T12:08:17;19.20;82.40
5711;DHT22;61291;52.524;13.422;2023-05-07T12:10:44;19.50;81.60
5711;DHT22;61291;52.524;13.422;2023-05-07T12:13:21;19.20;81.50
5711;DHT22;61291;52.524;13.422;2023-05-07T12:15:51;19.40;80.90
5711;DHT22;61291;52.524;13.422;2023-05-07T12:18:16;19.10;81.20
5711;DHT22;61291;52.524;13.422;2023-05-07T12:20:42;18.70;81.30
5711;DHT22;61291;52.524;13.422;2023-05-07T12:23:08;18.60;81.20
5711;DHT22;61291;52.524;13.422;2023-05-07T12:25:38;18.70;81.30
5711;DHT22;61291;52.524;13.422;2023-05-07T12:28:04;18.30;81.80
5711;DHT22;61291;52.524;13.422;2023-05-07T12:30:37;18.00;81.70
5711;DHT22;61291;52.524;13.422;2023-05-07T12:33:03;17.90;81.60
5711;DHT22;61291;52.524;13.422;2023-05-07T12:35:30;17.50;82.40
5711;DHT22;61291;52.524;13.422;2023-05-07T12:37:56;17.80;82.60
5711;DHT22;61291;52.524;13.422;2023-05-07T12:40:24;18.30;82.80
5711;DHT22;61291;52.524;13.422;2023-05-07T12:42:52;18.70;82.40
5711;DHT22;61291;52.524;13.422;2023-05-07T12:45:19;19.10;82.00
5711;DHT22;61291;52.524;13.422;2023-05-07T12:47:46;18.70;81.40
5711;DHT22;61291;52.524;13.422;2023-05-07T12:50:13;18.50;81.50
5711;DHT22;61291;52.524;13.422;2023-05-07T12:52:39;18.50;81.30
5711;DHT22;61291;52.524;13.422;2023-05-07T12:55:07;18.60;81.30
5711;DHT22;61291;52.524;13.422;2023-05-07T12:57:40;18.40;81.50
5711;DHT22;61291;52.524;13.422;2023-05-07T13:00:06;18.10;81.10
5711;DHT22;61291;52.524;13.422;2023-05-07T13:02:33;18.40;81.40
5711;DHT22;61291;52.524;13.422;2023-05-07T13:04:59;17.90;81.10
5711;DHT22;61291;52.524;13.422;2023-05-07T13:07:25;17.70;81.60
5711;DHT22;61291;52.524;13.422;2023-05-07T13:09:50;18.00;82.40
5711;DHT22;61291;52.524;13.422;2023-05-07T13:12:16;18.80;82.10
5711;DHT22;61291;52.524;13.422;2023-05-07T13:14:41;19.20;81.60
5711;DHT22;61291;52.524;13.422;2023-05-07T13:17:07;19.70;81.10
5711;DHT22;61291;52.524;13.422;2023-05-07T13:19:32;20.30;79.00
5711;DHT22;61291;52.524;13.422;2023-05-07T13:21:58;20.30;78.70
5711;DHT22;61291;52.524;13.422;2023-05-07T13:24:23;20.30;78.30
5711;DHT22;61291;52.524;13.422;2023-05-07T13:26:49;20.00;78.00
5711;DHT22;61291;52.524;13.422;2023-05-07T13:29:15;19.50;78.10
5711;DHT22;61291;52.524;13.422;2023-05-07T13:31:41;18.80;78.80
5711;DHT22;61291;52.524;13.422;2023-05-07T13:34:09;18.60;79.10
5711;DHT22;61291;52.524;13.422;2023-05-07T13:36:34;18.70;79.50
5711;DHT22;61291;52.524;13.422;2023-05-07T13:39:03;18.60;79.40
5711;DHT22;61291;52.524;13.422;2023-05-07T13:41:28;18.70;79.20
5711;DHT22;61291;52.524;13.422;2023-05-07T13:43:55;18.80;79.10
5711;DHT22;61291;52.524;13.422;2023-05-07T13:46:21;18.80;79.20
5711;DHT22;61291;52.524;13.422;2023-05-07T13:48:47;18.80;79.30
5711;DHT22;61291;52.524;13.422;2023-05-07T13:51:12;18.80;79.30
5711;DHT22;61291;52.524;13.422;2023-05-07T13:53:38;18.90;78.80
5711;DHT22;61291;52.524;13.422;2023-05-07T13:56:03;18.80;78.60
5711;DHT22;61291;52.524;13.422;2023-05-07T13:58:30;18.90;78.60
5711;DHT22;61291;52.524;13.422;2023-05-07T14:00:55;18.80;78.80
5711;DHT22;61291;52.524;13.422;2023-05-07T14:03:21;19.00;79.00
5711;DHT22;61291;52.524;13.422;2023-05-07T14:05:47;18.90;79.10
5711;DHT22;61291;52.524;13.422;2023-05-07T14:08:12;18.90;79.10
5711;DHT22;61291;52.524;13.422;2023-05-07T14:10:39;18.70;79.10
5711;DHT22;61291;52.524;13.422;2023-05-07T14:13:05;18.30;79.10
5711;DHT22;61291;52.524;13.422;2023-05-07T14:15:30;18.00;80.10
5711;DHT22;61291;52.524;13.422;2023-05-07T14:17:58;17.80;79.40
5711;DHT22;61291;52.524;13.422;2023-05-07T14:20:24;17.60;79.50
5711;DHT22;61291;52.524;13.422;2023-05-07T14:22:50;17.50;79.30
5711;DHT22;61291;52.524;13.422;2023-05-07T14:25:15;17.20;80.00
5711;DHT22;61291;52.524;13.422;2023-05-07T14:27:41;17.30;80.60
5711;DHT22;61291;52.524;13.422;2023-05-07T14:30:07;17.30;80.40
5711;DHT22;61291;52.524;13.422;2023-05-07T14:32:33;17.40;80.60
5711;DHT22;61291;52.524;13.422;2023-05-07T14:34:59;17.50;80.30
5711;DHT22;61291;52.524;13.422;2023-05-07T14:37:24;17.60;80.10
5711;DHT22;61291;52.524;13.422;2023-05-07T14:39:50;17.90;79.80
5711;DHT22;61291;52.524;13.422;2023-05-07T14:42:15;18.10;79.10
5711;DHT22;61291;52.524;13.422;2023-05-07T14:44:41;18.40;78.10
5711;DHT22;61291;52.524;13.422;2023-05-07T14:47:07;19.00;78.20
5711;DHT22;61291;52.524;13.422;2023-05-07T14:49:33;19.60;78.30
5711;DHT22;61291;52.524;13.422;2023-05-07T14:51:59;20.20;78.30
5711;DHT22;61291;52.524;13.422;2023-05-07T14:54:25;20.70;77.60
5711;DHT22;61291;52.524;13.422;2023-05-07T14:56:51;21.20;77.00
5711;DHT22;61291;52.524;13.422;2023-05-07T14:59:18;21.50;76.40
5711;DHT22;61291;52.524;13.422;2023-05-07T15:01:49;21.80;76.50
5711;DHT22;61291;52.524;13.422;2023-05-07T15:04:15;21.10;75.20
5711;DHT22;61291;52.524;13.422;2023-05-07T15:06:40;20.80;75.80
5711;DHT22;61291;52.524;13.422;2023-05-07T15:09:06;21.10;76.20
5711;DHT22;61291;52.524;13.422;2023-05-07T15:11:33;20.90;75.60
5711;DHT22;61291;52.524;13.422;2023-05-07T15:13:58;20.70;75.50
5711;DHT22;61291;52.524;13.422;2023-05-07T15:16:24;21.00;75.80
5711;DHT22;61291;52.524;13.422;2023-05-07T15:18:49;21.00;75.40
5711;DHT22;61291;52.524;13.422;2023-05-07T15:21:15;20.50;75.00
5711;DHT22;61291;52.524;13.422;2023-05-07T15:23:40;20.40;75.10
5711;DHT22;61291;52.524;13.422;2023-05-07T15:26:09;20.00;75.20
5711;DHT22;61291;52.524;13.422;2023-05-07T15:28:35;19.70;75.80
5711;DHT22;61291;52.524;13.422;2023-05-07T15:31:01;19.40;76.20
5711;DHT22;61291;52.524;13.422;2023-05-07T15:33:26;19.30;76.10
5711;DHT22;61291;52.524;13.422;2023-05-07T15:35:52;19.50;76.20
5711;DHT22;61291;52.524;13.422;2023-05-07T15:38:18;19.70;76.40
5711;DHT22;61291;52.524;13.422;2023-05-07T15:40:43;19.90;76.40
5711;DHT22;61291;52.524;13.422;2023-05-07T15:43:10;20.20;76.30
5711;DHT22;61291;52.524;13.422;2023-05-07T15:45:39;19.80;76.00
5711;DHT22;61291;52.524;13.422;2023-05-07T15:48:06;19.50;75.40
5711;DHT22;61291;52.524;13.422;2023-05-07T15:50:31;19.10;75.40
5711;DHT22;61291;52.524;13.422;2023-05-07T15:52:57;18.70;75.30